createdAt,value
2023-02-08T00:05:21.980Z,10.7
2023-02-08T00:11:03.055Z,15.6
2023-02-08T00:16:28.690Z,15.6
2023-02-08T00:21:47.872Z,13.2
2023-02-08T00:27:44.022Z,3.6
2023-02-08T00:33:18.279Z,5.9
2023-02-08T00:38:43.478Z,3.6
2023-02-08T00:44:18.409Z,5.9
2023-02-08T00:49:32.484Z,3.6
2023-02-08T00:55:22.801Z,0
2023-02-08T01:00:58.236Z,3.6
2023-02-08T01:06:18.319Z,4.8
2023-02-08T01:11:50.956Z,4.8
2023-02-08T01:17:17.724Z,8.4
2023-02-08T01:22:50.880Z,5.9
2023-02-08T01:28:42.298Z,7.2
2023-02-08T01:33:55.389Z,9.6
2023-02-08T01:39:31.274Z,5.9
2023-02-08T01:45:03.768Z,8.4
2023-02-08T01:51:01.737Z,8.4
2023-02-08T01:56:26.099Z,8.4
2023-02-08T02:01:42.453Z,9.6
2023-02-08T02:07:36.877Z,8.4
2023-02-08T02:13:15.430Z,8.4
2023-02-08T02:18:55.795Z,8.4
2023-02-08T02:24:15.210Z,9.6
2023-02-08T02:29:41.033Z,9.6
2023-02-08T02:35:12.996Z,8.4
2023-02-08T02:40:51.452Z,10.7
2023-02-08T02:46:22.348Z,8.4
2023-02-08T02:51:56.909Z,9.6
2023-02-08T02:57:37.079Z,7.2
2023-02-08T03:03:16.541Z,7.2
2023-02-08T03:08:29.800Z,7.2
2023-02-08T03:14:16.683Z,7.2
2023-02-08T03:19:56.649Z,7.2
2023-02-08T03:25:17.405Z,3.6
2023-02-08T03:31:07.041Z,3.6
2023-02-08T03:36:25.465Z,2.4
2023-02-08T03:42:07.021Z,3.6
2023-02-08T03:53:10.661Z,4.8
2023-02-08T03:58:26.801Z,3.6
2023-02-08T04:04:23.576Z,5.9
2023-02-08T04:09:45.437Z,7.2
2023-02-08T04:15:08.886Z,7.2
2023-02-08T04:21:05.714Z,5.9
2023-02-08T04:26:34.783Z,7.2
2023-02-08T04:31:50.347Z,8.4
2023-02-08T04:37:50.573Z,9.6
2023-02-08T04:42:58.606Z,7.2
2023-02-08T04:48:39.762Z,7.2
2023-02-08T04:54:21.398Z,5.9
2023-02-08T04:59:49.994Z,8.4
2023-02-08T05:05:16.674Z,4.8
2023-02-08T05:11:01.425Z,7.2
2023-02-08T05:16:24.371Z,7.2
2023-02-08T05:22:16.236Z,7.2
2023-02-08T05:27:26.584Z,7.2
2023-02-08T05:32:56.366Z,5.9
2023-02-08T05:38:33.020Z,7.2
2023-02-08T05:44:29.644Z,7.2
2023-02-08T05:49:46.406Z,7.2
2023-02-08T05:55:13.064Z,9.6
2023-02-08T06:00:57.216Z,8.4
2023-02-08T06:06:30.123Z,5.9
2023-02-08T06:12:08.218Z,7.2
2023-02-08T06:17:41.147Z,4.8
2023-02-08T06:23:15.680Z,7.2
2023-02-08T06:28:49.897Z,5.9
2023-02-08T06:34:29.162Z,9.6
2023-02-08T06:40:02.114Z,10.7
2023-02-08T06:45:11.055Z,9.6
2023-02-08T06:51:08.872Z,10.7
2023-02-08T06:56:27.345Z,10.7
2023-02-08T07:01:54.611Z,9.6
2023-02-08T07:07:45.804Z,13.2
2023-02-08T07:13:06.267Z,11.9
2023-02-08T07:18:43.934Z,10.7
2023-02-08T07:24:06.360Z,10.7
2023-02-08T07:29:45.624Z,9.6
2023-02-08T07:35:21.450Z,10.7
2023-02-08T07:41:07.116Z,9.6
2023-02-08T07:46:41.755Z,9.6
2023-02-08T07:52:04.012Z,5.9
2023-02-08T07:57:54.145Z,8.4
2023-02-08T08:03:19.589Z,8.4
2023-02-08T08:08:56.938Z,7.2
2023-02-08T08:14:30.229Z,8.4
2023-02-08T08:19:50.938Z,9.6
2023-02-08T08:25:42.857Z,8.4
2023-02-08T08:30:59.675Z,8.4
2023-02-08T08:36:48.243Z,4.8
2023-02-08T08:42:00.853Z,0
2023-02-08T08:47:52.335Z,0
2023-02-08T08:53:25.562Z,0
2023-02-08T08:59:01.010Z,0
2023-02-08T09:04:19.500Z,0
2023-02-08T09:09:48.772Z,0
2023-02-08T09:15:39.910Z,0
2023-02-08T09:20:58.694Z,0
2023-02-08T09:26:17.518Z,2.4
2023-02-08T09:31:50.780Z,0
2023-02-08T09:37:47.215Z,2.4
2023-02-08T09:42:55.731Z,0
2023-02-08T09:48:42.578Z,0
2023-02-08T09:54:26.029Z,0
2023-02-08T09:59:50.612Z,0
2023-02-08T10:05:24.406Z,0
2023-02-08T10:10:53.303Z,0
2023-02-08T10:16:36.278Z,0
2023-02-08T10:21:48.540Z,0
2023-02-08T10:27:31.516Z,0
2023-02-08T10:33:11.007Z,0
2023-02-08T10:38:46.204Z,0
2023-02-08T10:44:26.809Z,0
2023-02-08T10:49:41.633Z,0
2023-02-08T10:55:21.284Z,0
2023-02-08T11:00:57.297Z,0
2023-02-08T11:06:22.362Z,0
2023-02-08T11:11:44.561Z,0
2023-02-08T11:17:20.519Z,0
2023-02-08T11:22:51.095Z,0
2023-02-08T11:28:33.711Z,0
2023-02-08T11:34:01.868Z,0
2023-02-08T11:39:40.339Z,0
2023-02-08T11:45:23.155Z,0
2023-02-08T11:50:43.656Z,0
2023-02-08T11:56:34.544Z,0
2023-02-08T12:02:04.854Z,0
2023-02-08T12:07:28.803Z,0
2023-02-08T12:13:01.090Z,0
2023-02-08T12:18:27.790Z,0
2023-02-08T12:24:06.345Z,0
2023-02-08T12:29:47.592Z,0
2023-02-08T12:35:09.641Z,0
2023-02-08T12:40:36.403Z,0
2023-02-08T12:46:18.238Z,0
2023-02-08T12:51:42.931Z,0
2023-02-08T12:57:37.452Z,0
2023-02-08T13:03:08.724Z,0
2023-02-08T13:08:41.416Z,0
2023-02-08T13:14:12.927Z,0
2023-02-08T13:19:27.462Z,0
2023-02-08T13:25:18.071Z,0
2023-02-08T13:30:57.897Z,0
2023-02-08T13:36:10.386Z,0
2023-02-08T13:42:05.488Z,0
2023-02-08T13:47:18.172Z,0
2023-02-08T13:53:04.153Z,0
2023-02-08T13:58:17.894Z,0
2023-02-08T14:03:56.732Z,0
2023-02-08T14:09:52.970Z,0
2023-02-08T14:15:01.455Z,0
2023-02-08T14:20:34.090Z,0
2023-02-08T14:26:27.192Z,0
2023-02-08T14:31:50.231Z,0
2023-02-08T14:37:27.052Z,0
2023-02-08T14:43:10.058Z,0
2023-02-08T14:48:47.516Z,0
2023-02-08T14:53:58.219Z,0
2023-02-08T14:59:50.703Z,0
2023-02-08T15:05:02.155Z,0
2023-02-08T15:10:58.252Z,0
2023-02-08T15:16:10.055Z,0
2023-02-08T15:21:44.565Z,0
2023-02-08T15:27:33.085Z,0
2023-02-08T15:33:09.207Z,0
2023-02-08T15:38:17.006Z,0
2023-02-08T15:44:13.815Z,0
2023-02-08T15:49:48.689Z,0
2023-02-08T15:55:01.485Z,0
2023-02-08T16:00:38.433Z,0
2023-02-08T16:06:27.735Z,0
2023-02-08T16:11:45.434Z,0
2023-02-08T16:17:15.104Z,0
2023-02-08T16:22:57.158Z,0
2023-02-08T16:28:28.626Z,0
2023-02-08T16:33:45.416Z,0
2023-02-08T16:39:24.063Z,0
2023-02-08T16:45:15.997Z,0
2023-02-08T16:50:34.682Z,0
2023-02-08T16:56:14.727Z,0
2023-02-08T17:01:43.178Z,0
2023-02-08T17:07:19.095Z,0
2023-02-08T17:12:44.252Z,0
2023-02-08T17:18:10.640Z,0
2023-02-08T17:23:41.955Z,0
2023-02-08T17:29:36.563Z,0
2023-02-08T17:34:50.351Z,0
2023-02-08T17:40:19.044Z,0
2023-02-08T17:46:13.324Z,0
2023-02-08T17:51:43.404Z,0
2023-02-08T18:08:14.257Z,0
2023-02-08T18:13:50.640Z,0
2023-02-08T18:19:16.236Z,0
2023-02-08T18:24:55.679Z,0
2023-02-08T18:30:35.381Z,0
2023-02-08T18:35:44.383Z,0
2023-02-08T18:41:29.376Z,0
2023-02-08T18:46:54.157Z,0
2023-02-08T18:52:45.015Z,0
2023-02-08T18:58:07.353Z,0
2023-02-08T19:03:49.680Z,0
2023-02-08T19:09:18.460Z,0
2023-02-08T19:14:32.361Z,0
2023-02-08T19:20:27.094Z,0
2023-02-08T19:25:37.667Z,0
2023-02-08T19:31:31.346Z,0
2023-02-08T19:36:41.152Z,0
2023-02-08T19:42:16.573Z,0
2023-02-08T19:48:05.427Z,0
2023-02-08T19:53:27.968Z,0
2023-02-08T19:59:10.942Z,0
2023-02-08T20:04:46.591Z,0
2023-02-08T20:09:59.415Z,0
2023-02-08T20:15:43.159Z,0
2023-02-08T20:21:10.750Z,0
2023-02-08T20:26:56.597Z,0
2023-02-08T20:32:05.772Z,0
2023-02-08T20:37:41.073Z,0
2023-02-08T20:43:10.929Z,0
2023-02-08T20:49:03.467Z,0
2023-02-08T20:54:26.292Z,0
2023-02-08T20:59:54.227Z,0
2023-02-08T21:05:37.700Z,0
2023-02-08T21:11:15.935Z,0
2023-02-08T21:16:21.176Z,0
2023-02-08T21:22:00.958Z,0
2023-02-08T21:27:48.922Z,0
2023-02-08T21:32:56.270Z,0
2023-02-08T21:38:48.646Z,0
2023-02-08T21:44:22.481Z,0
2023-02-08T21:49:34.869Z,0
2023-02-08T21:55:20.001Z,0
2023-02-08T22:01:06.871Z,0
2023-02-08T22:06:37.582Z,0
2023-02-08T22:11:45.889Z,0
2023-02-08T22:17:15.316Z,0
2023-02-08T22:23:04.237Z,0
2023-02-08T22:28:25.966Z,0
2023-02-08T22:34:19.992Z,0
2023-02-08T22:39:29.624Z,0
2023-02-08T22:45:07.691Z,0
2023-02-08T22:50:28.936Z,0
2023-02-08T22:56:21.922Z,0
2023-02-08T23:01:46.224Z,0
2023-02-08T23:07:13.101Z,0
2023-02-08T23:12:43.249Z,0
2023-02-08T23:18:17.024Z,0
2023-02-08T23:23:53.580Z,0
2023-02-08T23:29:26.047Z,0
2023-02-08T23:35:09.014Z,0
2023-02-08T23:40:45.054Z,0
2023-02-08T23:46:09.720Z,0
2023-02-08T23:51:50.921Z,0
2023-02-08T23:56:59.223Z,0
